createdAt,value
2022-11-05T00:04:10.687Z,7.04
2022-11-05T00:08:31.663Z,7.01
2022-11-05T00:12:52.663Z,6.97
2022-11-05T00:16:57.533Z,6.91
2022-11-05T00:21:00.870Z,6.91
2022-11-05T00:25:16.807Z,6.78
2022-11-05T00:29:20.258Z,6.65
2022-11-05T00:33:24.973Z,6.56
2022-11-05T00:37:28.766Z,6.47
2022-11-05T00:41:32.292Z,6.52
2022-11-05T00:45:35.655Z,6.53
2022-11-05T00:49:39.440Z,6.52
2022-11-05T00:53:42.793Z,6.43
2022-11-05T00:57:46.151Z,6.48
2022-11-05T01:01:49.819Z,6.40
2022-11-05T01:05:56.293Z,6.43
2022-11-05T01:09:59.635Z,6.18
2022-11-05T01:14:05.215Z,6.24
2022-11-05T01:18:09.234Z,6.10
2022-11-05T01:22:14.304Z,6.01
2022-11-05T01:26:17.657Z,5.80
2022-11-05T01:30:21.473Z,5.89
2022-11-05T01:34:24.759Z,5.80
2022-11-05T01:38:29.528Z,5.75
2022-11-05T01:42:34.347Z,5.92
2022-11-05T01:46:42.321Z,6.09
2022-11-05T01:50:50.819Z,5.95
2022-11-05T01:54:56.093Z,5.83
2022-11-05T01:59:02.991Z,6.09
2022-11-05T02:03:06.507Z,6.30
2022-11-05T02:07:11.836Z,6.38
2022-11-05T02:11:19.497Z,6.30
2022-11-05T02:15:29.753Z,6.54
2022-11-05T02:19:56.613Z,6.65
2022-11-05T02:24:24.646Z,6.78
2022-11-05T02:29:04.396Z,6.77
2022-11-05T02:33:24.018Z,6.78
2022-11-05T02:37:39.581Z,6.73
2022-11-05T02:41:52.671Z,6.67
2022-11-05T02:46:04.730Z,6.56
2022-11-05T02:50:20.196Z,6.53
2022-11-05T02:54:28.251Z,6.48
2022-11-05T02:58:31.809Z,6.50
2022-11-05T03:02:35.504Z,6.42
2022-11-05T03:07:05.567Z,6.39
2022-11-05T03:11:15.634Z,6.30
2022-11-05T03:15:35.929Z,6.31
2022-11-05T03:19:47.818Z,6.43
2022-11-05T03:23:57.636Z,6.34
2022-11-05T03:28:07.397Z,6.26
2022-11-05T03:32:13.171Z,6.25
2022-11-05T03:36:22.992Z,6.14
2022-11-05T03:40:29.569Z,6.10
2022-11-05T03:44:36.786Z,6.07
2022-11-05T03:48:44.462Z,6.06
2022-11-05T03:52:53.307Z,6.10
2022-11-05T03:57:04.972Z,5.90
2022-11-05T04:01:08.555Z,5.93
2022-11-05T04:05:12.762Z,5.88
2022-11-05T04:09:33.399Z,6.01
2022-11-05T04:13:38.147Z,6.03
2022-11-05T04:17:41.515Z,5.99
2022-11-05T04:22:02.244Z,5.92
2022-11-05T04:26:05.771Z,5.95
2022-11-05T04:30:20.608Z,6.04
2022-11-05T04:34:24.661Z,5.96
2022-11-05T04:38:28.068Z,6.01
2022-11-05T04:42:31.414Z,5.94
2022-11-05T04:46:36.121Z,5.96
2022-11-05T04:50:39.596Z,5.94
2022-11-05T04:54:42.964Z,5.99
2022-11-05T04:58:46.652Z,5.97
2022-11-05T05:02:51.709Z,6.04
2022-11-05T05:06:54.991Z,6.03
2022-11-05T05:11:02.774Z,5.94
2022-11-05T05:15:07.260Z,6.05
2022-11-05T05:19:12.000Z,6.05
2022-11-05T05:23:15.376Z,6.09
2022-11-05T05:27:18.756Z,5.99
2022-11-05T05:31:22.682Z,5.99
2022-11-05T05:35:27.396Z,5.91
2022-11-05T05:39:30.757Z,5.92
2022-11-05T05:43:35.028Z,5.93
2022-11-05T05:47:38.778Z,5.89
2022-11-05T05:51:43.628Z,5.88
2022-11-05T05:55:47.039Z,5.71
2022-11-05T05:59:50.439Z,5.86
2022-11-05T06:03:53.755Z,5.74
2022-11-05T06:07:59.284Z,5.64
2022-11-05T06:12:02.793Z,5.80
2022-11-05T06:16:08.167Z,5.81
2022-11-05T06:20:12.789Z,5.83
2022-11-05T06:24:17.524Z,5.86
2022-11-05T06:28:20.914Z,5.79
2022-11-05T06:32:24.390Z,5.87
2022-11-05T06:36:27.736Z,5.85
2022-11-05T06:40:32.408Z,5.93
2022-11-05T06:44:35.741Z,5.85
2022-11-05T06:48:39.510Z,5.88
2022-11-05T06:52:42.789Z,5.84
2022-11-05T06:56:47.545Z,5.84
2022-11-05T07:00:51.159Z,5.77
2022-11-05T07:04:54.559Z,5.96
2022-11-05T07:08:57.967Z,6.19
2022-11-05T07:13:07.783Z,6.37
2022-11-05T07:17:12.136Z,6.60
2022-11-05T07:21:15.468Z,6.81
2022-11-05T07:25:19.172Z,7.22
2022-11-05T07:29:23.847Z,7.32
2022-11-05T07:33:27.809Z,7.42
2022-11-05T07:37:33.452Z,7.79
2022-11-05T07:41:37.006Z,7.85
2022-11-05T07:45:41.809Z,8.02
2022-11-05T07:49:45.162Z,8.11
2022-11-05T07:53:48.692Z,8.16
2022-11-05T07:57:52.455Z,8.60
2022-11-05T08:01:57.535Z,8.76
2022-11-05T08:06:01.138Z,9.16
2022-11-05T08:10:05.083Z,9.08
2022-11-05T08:14:08.670Z,9.77
2022-11-05T08:18:15.774Z,9.43
2022-11-05T08:22:19.221Z,9.93
2022-11-05T08:26:22.706Z,10.38
2022-11-05T08:30:25.912Z,10.74
2022-11-05T08:34:30.944Z,10.75
2022-11-05T08:38:34.106Z,10.47
2022-11-05T08:42:37.229Z,10.61
2022-11-05T08:46:41.744Z,10.06
2022-11-05T08:50:47.292Z,10.97
2022-11-05T08:54:50.394Z,11.06
2022-11-05T08:58:54.004Z,10.75
2022-11-05T09:02:59.757Z,10.81
2022-11-05T09:07:04.245Z,11.64
2022-11-05T09:11:07.378Z,11.44
2022-11-05T09:15:12.328Z,11.52
2022-11-05T09:19:15.476Z,11.10
2022-11-05T09:23:20.249Z,11.86
2022-11-05T09:27:23.499Z,11.94
2022-11-05T09:31:26.874Z,12.02
2022-11-05T09:35:30.000Z,12.09
2022-11-05T09:39:34.489Z,11.70
2022-11-05T09:43:39.491Z,12.72
2022-11-05T09:47:45.376Z,12.49
2022-11-05T09:51:48.481Z,12.56
2022-11-05T09:55:54.701Z,12.97
2022-11-05T09:59:59.726Z,12.40
2022-11-05T10:04:07.419Z,12.53
2022-11-05T10:08:14.949Z,12.79
2022-11-05T10:12:22.775Z,12.34
2022-11-05T10:16:27.771Z,12.50
2022-11-05T10:20:33.654Z,12.42
2022-11-05T10:24:37.072Z,12.68
2022-11-05T10:28:41.593Z,12.72
2022-11-05T10:32:46.013Z,13.38
2022-11-05T10:36:49.494Z,13.75
2022-11-05T10:40:56.642Z,12.69
2022-11-05T10:45:04.803Z,13.70
2022-11-05T10:49:18.756Z,13.55
2022-11-05T10:53:23.663Z,13.46
2022-11-05T10:57:31.887Z,13.16
2022-11-05T11:01:36.708Z,13.14
2022-11-05T11:05:41.296Z,12.91
2022-11-05T11:09:48.295Z,12.59
2022-11-05T11:13:52.388Z,12.20
2022-11-05T11:17:57.774Z,12.25
2022-11-05T11:22:16.021Z,12.18
2022-11-05T11:26:19.229Z,11.97
2022-11-05T11:30:22.960Z,11.71
2022-11-05T11:34:31.006Z,11.72
2022-11-05T11:38:35.863Z,11.92
2022-11-05T11:42:41.386Z,11.58
2022-11-05T11:46:47.562Z,11.62
2022-11-05T11:50:52.113Z,11.37
2022-11-05T11:55:07.941Z,11.56
2022-11-05T11:59:18.248Z,11.56
2022-11-05T12:03:25.540Z,11.72
2022-11-05T12:07:39.449Z,11.96
2022-11-05T12:11:45.048Z,11.95
2022-11-05T12:15:50.901Z,12.03
2022-11-05T12:20:04.752Z,12.07
2022-11-05T12:24:39.142Z,11.84
2022-11-05T12:29:16.719Z,12.05
2022-11-05T12:33:20.579Z,12.43
2022-11-05T12:37:30.806Z,11.99
2022-11-05T12:41:39.846Z,12.35
2022-11-05T12:45:46.392Z,12.74
2022-11-05T12:49:59.765Z,12.54
2022-11-05T12:54:08.812Z,12.41
2022-11-05T12:58:16.503Z,12.37
2022-11-05T13:02:23.981Z,12.26
2022-11-05T13:06:31.533Z,12.20
2022-11-05T13:10:36.727Z,12.23
2022-11-05T13:14:43.703Z,12.46
2022-11-05T13:18:49.595Z,12.51
2022-11-05T13:22:56.455Z,12.63
2022-11-05T13:27:02.257Z,12.77
2022-11-05T13:31:11.228Z,12.74
2022-11-05T13:35:19.206Z,12.33
2022-11-05T13:39:25.012Z,12.30
2022-11-05T13:43:39.348Z,12.54
2022-11-05T13:47:51.336Z,12.47
2022-11-05T13:51:55.917Z,12.33
2022-11-05T13:56:03.772Z,12.48
2022-11-05T14:00:12.700Z,12.30
2022-11-05T14:04:23.509Z,12.32
2022-11-05T14:08:28.529Z,12.25
2022-11-05T14:12:33.667Z,12.18
2022-11-05T14:16:48.809Z,12.05
2022-11-05T14:21:00.810Z,11.98
2022-11-05T14:25:25.279Z,11.97
2022-11-05T14:29:38.493Z,11.93
2022-11-05T14:33:41.673Z,11.94
2022-11-05T14:37:53.523Z,11.99
2022-11-05T14:42:03.005Z,11.89
2022-11-05T14:46:07.593Z,11.87
2022-11-05T14:50:12.719Z,11.75
2022-11-05T14:54:23.103Z,11.78
2022-11-05T14:58:28.632Z,11.78
2022-11-05T15:02:37.024Z,11.74
2022-11-05T15:06:40.833Z,11.85
2022-11-05T15:10:46.677Z,11.89
2022-11-05T15:14:55.905Z,11.71
2022-11-05T15:18:59.644Z,11.63
2022-11-05T15:23:05.393Z,11.49
2022-11-05T15:27:17.404Z,11.41
2022-11-05T15:31:23.807Z,11.27
2022-11-05T15:35:30.118Z,11.17
2022-11-05T15:39:40.753Z,11.09
2022-11-05T15:43:48.210Z,10.96
2022-11-05T15:47:51.473Z,10.87
2022-11-05T15:51:55.065Z,10.77
2022-11-05T15:56:02.621Z,10.68
2022-11-05T16:00:16.864Z,10.64
2022-11-05T16:04:22.792Z,10.69
2022-11-05T16:08:28.550Z,10.68
2022-11-05T16:12:35.234Z,10.69
2022-11-05T16:16:41.462Z,10.64
2022-11-05T16:21:00.859Z,10.54
2022-11-05T16:25:28.579Z,10.57
2022-11-05T16:29:36.739Z,10.60
2022-11-05T16:33:45.203Z,10.58
2022-11-05T16:37:52.057Z,10.52
2022-11-05T16:41:55.969Z,10.54
2022-11-05T16:46:02.122Z,10.57
2022-11-05T16:50:17.152Z,10.52
2022-11-05T16:54:20.982Z,10.59
2022-11-05T16:58:26.743Z,10.51
2022-11-05T17:02:30.406Z,10.45
2022-11-05T17:06:36.516Z,10.41
2022-11-05T17:10:40.230Z,10.40
2022-11-05T17:14:44.409Z,10.34
2022-11-05T17:18:47.924Z,10.38
2022-11-05T17:22:52.950Z,10.45
2022-11-05T17:26:57.574Z,10.44
2022-11-05T17:31:01.654Z,10.42
2022-11-05T17:35:06.085Z,10.44
2022-11-05T17:39:12.893Z,10.44
2022-11-05T17:43:16.576Z,10.40
2022-11-05T17:47:20.148Z,10.45
2022-11-05T17:51:23.759Z,10.49
2022-11-05T17:55:28.553Z,10.53
2022-11-05T17:59:32.570Z,10.47
2022-11-05T18:03:36.524Z,10.42
2022-11-05T18:07:40.104Z,10.44
2022-11-05T18:11:46.377Z,10.40
2022-11-05T18:15:53.216Z,10.34
2022-11-05T18:19:56.972Z,10.33
2022-11-05T18:24:03.733Z,10.32
2022-11-05T18:28:09.135Z,10.30
2022-11-05T18:32:12.923Z,10.27
2022-11-05T18:36:18.991Z,10.27
2022-11-05T18:40:22.732Z,10.19
2022-11-05T18:44:27.775Z,10.18
2022-11-05T18:48:31.308Z,10.15
2022-11-05T18:52:35.621Z,10.13
2022-11-05T18:56:44.755Z,10.13
2022-11-05T19:00:49.772Z,10.15
2022-11-05T19:05:22.490Z,10.10
2022-11-05T19:09:17.165Z,10.11
2022-11-05T19:13:20.665Z,10.10
2022-11-05T19:17:25.709Z,10.10
2022-11-05T19:21:30.076Z,10.10
2022-11-05T19:25:33.720Z,10.06
2022-11-05T19:29:37.279Z,10.10
2022-11-05T19:33:42.726Z,10.03
2022-11-05T19:37:46.593Z,10.03
2022-11-05T19:41:50.218Z,9.99
2022-11-05T19:45:53.724Z,9.97
2022-11-05T19:49:58.761Z,9.97
2022-11-05T19:54:03.358Z,9.92
2022-11-05T19:58:06.989Z,9.88
2022-11-05T20:02:15.972Z,9.88
2022-11-05T20:06:25.829Z,9.86
2022-11-05T20:10:29.511Z,9.87
2022-11-05T20:14:33.475Z,9.83
2022-11-05T20:18:37.307Z,9.79
2022-11-05T20:22:42.353Z,9.79
2022-11-05T20:26:46.096Z,9.81
2022-11-05T20:30:50.038Z,9.82
2022-11-05T20:34:53.864Z,9.87
2022-11-05T20:38:59.950Z,9.85
2022-11-05T20:43:03.510Z,9.81
2022-11-05T20:47:07.075Z,9.78
2022-11-05T20:51:13.443Z,9.74
2022-11-05T20:55:18.481Z,9.69
2022-11-05T20:59:22.081Z,9.62
2022-11-05T21:03:27.273Z,9.57
2022-11-05T21:07:30.656Z,9.53
2022-11-05T21:11:57.300Z,9.53
2022-11-05T21:16:01.992Z,9.44
2022-11-05T21:20:06.815Z,9.41
2022-11-05T21:24:10.510Z,9.50
2022-11-05T21:28:16.743Z,9.51
2022-11-05T21:32:20.616Z,9.46
2022-11-05T21:36:24.193Z,9.47
2022-11-05T21:40:27.822Z,9.41
2022-11-05T21:44:32.800Z,9.37
2022-11-05T21:48:37.423Z,9.36
2022-11-05T21:53:12.930Z,9.41
2022-11-05T21:57:36.170Z,9.38
2022-11-05T22:01:41.119Z,9.52
2022-11-05T22:05:45.003Z,9.46
2022-11-05T22:09:48.465Z,9.44
2022-11-05T22:13:53.443Z,9.50
2022-11-05T22:17:58.360Z,9.49
2022-11-05T22:22:02.101Z,9.51
2022-11-05T22:26:05.595Z,9.54
2022-11-05T22:30:09.665Z,9.63
2022-11-05T22:34:14.372Z,9.62
2022-11-05T22:38:17.740Z,9.55
2022-11-05T22:42:21.107Z,9.65
2022-11-05T22:46:26.452Z,9.61
2022-11-05T22:50:31.189Z,9.61
2022-11-05T22:54:39.038Z,9.57
2022-11-05T22:58:43.305Z,9.54
2022-11-05T23:02:46.745Z,9.54
2022-11-05T23:07:09.282Z,9.48
2022-11-05T23:11:34.301Z,9.47
2022-11-05T23:15:55.312Z,9.44
2022-11-05T23:20:24.911Z,9.33
2022-11-05T23:24:29.633Z,9.20
2022-11-05T23:28:33.016Z,9.10
2022-11-05T23:32:36.797Z,9.06
2022-11-05T23:36:57.695Z,8.97
2022-11-05T23:41:21.409Z,8.84
2022-11-05T23:45:42.206Z,8.78
2022-11-05T23:49:45.584Z,8.66
2022-11-05T23:53:48.881Z,8.63
2022-11-05T23:57:54.306Z,8.56
